KNBG/NBG METAR and TAF weather

Enter ICAO airport designator
Station Type Date Time Source
KNBG METAR 2022/11/30 15:55 UTC NOAA

KNBG 301555Z 36013G25KT 10SM FEW020 FEW029 BKN170 22/16 A3015 RMK AO2 PK WND 34027/1508 SLP208 T02220161 $


Station Type Date Time Source
KNBG Decoded METAR 2022/11/30 15:55 UTC NOAA

NEW ORLEANS NAVAL AIR STN, LA, United States (KNBG) 29-50N 90-01W
Nov 30, 2022 - 10:55 AM EST / 2022.11.30 1555 UTC
Wind: from the N (360 degrees) at 15 MPH (13 KT) gusting to 29 MPH (25 KT):0
Visibility: 10 mile(s):0
Sky conditions: mostly cloudy
Temperature: 72.0 F (22.2 C)
Dew Point: 61.0 F (16.1 C)
Relative Humidity: 68%
Pressure (altimeter): 30.15 in. Hg (1020 hPa)
ob: KNBG 301555Z 36013G25KT 10SM FEW020 FEW029 BKN170 22/16 A3015 RMK AO2 PK WND 34027/1508 SLP208 T02220161
cycle: 16

Station Type Date Time Source
KNBG TAF 2022/11/30 15:18 UTC NOAA

TAF TAF COR KNBG 3015/0115 35018G25KT 9999 SCT012 BKN020 BKN170 QNH3010INS
BECMG 3017/3019 36015G22KT 9999 SCT025 BKN170 QNH3012INS
BECMG 0100/0102 01010KT 9999 NSW FEW350 QNH3023INS T24/3015Z T07/0113Z COR 1515 FN20072

Example: see airport list